Time;durP1;ratioP1;P1;durP2;ratioP2;P2;SDS_P1;SDS_P2;PMS_P1;PMS_P2;Temp;Humidity;BMP_temperature;BMP_pressure;BME280_temperature;BME280_humidity;BME280_pressure;Samples;Min_cycle;Max_cycle;Signal;HPM_P1;HPM_P2
2021/08/10 00:00:30;;;;;;;12.53;7.43;;;15.30;99.90;;;;;;4429783;32;20582;-63
2021/08/10 00:02:57;;;;;;;9.37;6.03;;;15.30;99.90;;;;;;4422417;32;20163;-65
2021/08/10 00:05:24;;;;;;;10.07;6.37;;;15.30;99.90;;;;;;4422220;32;20162;-65
2021/08/10 00:07:52;;;;;;;9.73;6.70;;;15.30;99.90;;;;;;4422880;32;20463;-63
2021/08/10 00:10:19;;;;;;;10.00;6.67;;;15.30;99.90;;;;;;4422920;32;20140;-64
2021/08/10 00:12:47;;;;;;;8.17;6.03;;;15.30;99.90;;;;;;4421305;32;20162;-64
2021/08/10 00:15:15;;;;;;;9.57;6.23;;;15.30;99.90;;;;;;4420719;32;20230;-63
2021/08/10 00:17:42;;;;;;;11.50;7.17;;;15.30;99.90;;;;;;4422811;32;20210;-62
2021/08/10 00:20:10;;;;;;;8.90;6.77;;;15.30;99.90;;;;;;4422113;32;20158;-62
2021/08/10 00:22:37;;;;;;;10.63;7.27;;;15.30;99.90;;;;;;4421569;32;20563;-64
2021/08/10 00:25:05;;;;;;;11.57;6.80;;;15.30;99.90;;;;;;4421045;32;20226;-62
2021/08/10 00:27:32;;;;;;;10.07;7.07;;;15.30;99.90;;;;;;4420965;32;20154;-62
2021/08/10 00:30:00;;;;;;;9.40;6.67;;;15.40;99.90;;;;;;4421011;32;20162;-63
2021/08/10 00:32:27;;;;;;;10.97;7.50;;;15.40;99.90;;;;;;4420857;32;20144;-62
2021/08/10 00:34:54;;;;;;;11.67;7.47;;;15.30;99.90;;;;;;4420951;32;20166;-65
2021/08/10 00:37:21;;;;;;;13.13;7.67;;;15.40;99.90;;;;;;4421336;32;20177;-61
2021/08/10 00:39:48;;;;;;;8.93;6.77;;;15.40;99.90;;;;;;4420952;32;20139;-63
2021/08/10 00:42:15;;;;;;;8.67;7.13;;;15.40;99.90;;;;;;4420948;32;20177;-62
2021/08/10 00:44:42;;;;;;;9.17;7.03;;;15.40;99.90;;;;;;4421095;32;20163;-62
2021/08/10 00:47:10;;;;;;;12.80;7.63;;;15.40;99.90;;;;;;4421146;32;20161;-62
2021/08/10 00:49:37;;;;;;;10.97;6.97;;;15.40;99.90;;;;;;4420733;32;20144;-61
2021/08/10 00:52:04;;;;;;;9.67;7.07;;;15.40;99.90;;;;;;4422418;32;20143;-61
2021/08/10 00:54:31;;;;;;;11.63;6.93;;;15.40;99.90;;;;;;4420475;32;20148;-63
2021/08/10 00:56:58;;;;;;;9.57;6.57;;;15.30;99.90;;;;;;4420742;32;20147;-62
2021/08/10 00:59:26;;;;;;;11.43;7.50;;;15.30;99.90;;;;;;4420644;32;20213;-62
2021/08/10 01:01:53;;;;;;;8.40;6.53;;;15.30;99.90;;;;;;4420806;32;20167;-61
2021/08/10 01:04:22;;;;;;;11.67;7.50;;;15.30;99.90;;;;;;4420695;32;20170;-61
2021/08/10 01:07:00;;;;;;;11.70;7.40;;;15.30;99.90;;;;;;4420636;32;20177;-61
2021/08/10 01:09:30;;;;;;;12.10;7.33;;;15.20;99.90;;;;;;4420598;32;20140;-62
2021/08/10 01:12:02;;;;;;;8.57;7.00;;;15.30;99.90;;;;;;4420347;32;20164;-63
2021/08/10 01:14:36;;;;;;;10.60;7.43;;;15.20;99.90;;;;;;4421039;32;20602;-61
2021/08/10 01:17:06;;;;;;;14.00;7.90;;;15.20;99.90;;;;;;4420596;32;20158;-61
2021/08/10 01:19:51;;;;;;;10.13;7.77;;;15.20;99.90;;;;;;4422110;32;20143;-62
2021/08/10 01:22:21;;;;;;;10.97;7.30;;;15.30;99.90;;;;;;4420590;32;20171;-61
2021/08/10 01:24:55;;;;;;;10.80;6.43;;;15.30;99.90;;;;;;4420513;32;20163;-61
2021/08/10 01:27:41;;;;;;;9.97;7.47;;;15.20;99.90;;;;;;4420295;32;20165;-62
2021/08/10 01:30:12;;;;;;;9.13;7.40;;;15.30;99.90;;;;;;4420145;32;20166;-63
2021/08/10 01:32:43;;;;;;;12.83;8.17;;;15.20;99.90;;;;;;4421076;32;20170;-61
2021/08/10 01:35:12;;;;;;;9.17;7.47;;;15.20;99.90;;;;;;4420566;32;20139;-61
2021/08/10 01:37:40;;;;;;;9.43;7.13;;;15.20;99.90;;;;;;4420381;32;20173;-61
2021/08/10 01:40:11;;;;;;;9.73;7.40;;;15.20;99.90;;;;;;4420746;32;20147;-62
2021/08/10 01:42:40;;;;;;;13.17;8.20;;;15.20;99.90;;;;;;4421922;32;20498;-60
2021/08/10 01:45:08;;;;;;;11.00;7.30;;;15.10;99.90;;;;;;4420423;32;20143;-60
2021/08/10 01:47:36;;;;;;;10.83;7.27;;;15.20;99.90;;;;;;4422074;32;20159;-62
2021/08/10 01:50:05;;;;;;;12.83;8.23;;;15.20;99.90;;;;;;4420893;32;20169;-61
2021/08/10 01:52:32;;;;;;;9.30;7.80;;;15.20;99.90;;;;;;4420330;32;20166;-63
2021/08/10 01:54:59;;;;;;;9.13;7.70;;;15.10;99.90;;;;;;4420139;32;20163;-62
2021/08/10 01:57:27;;;;;;;13.13;7.43;;;15.10;99.90;;;;;;4420301;32;20158;-64
2021/08/10 01:59:56;;;;;;;12.67;7.00;;;15.10;99.90;;;;;;4421475;32;20502;-63
2021/08/10 02:02:23;;;;;;;11.50;7.60;;;15.10;99.90;;;;;;4420802;32;20463;-61
2021/08/10 02:04:51;;;;;;;12.47;7.47;;;15.10;99.90;;;;;;4421060;32;20485;-63
2021/08/10 02:07:20;;;;;;;8.00;6.93;;;15.10;99.90;;;;;;4420211;32;20147;-64
2021/08/10 02:09:48;;;;;;;11.87;6.87;;;15.10;99.90;;;;;;4420164;32;20148;-63
2021/08/10 02:12:16;;;;;;;9.57;7.07;;;15.10;99.90;;;;;;4420205;32;20179;-62
2021/08/10 02:14:44;;;;;;;10.77;7.73;;;15.10;99.90;;;;;;4420253;32;20174;-64
2021/08/10 02:17:16;;;;;;;10.20;7.47;;;15.10;99.90;;;;;;4420131;32;20192;-64
2021/08/10 02:19:43;;;;;;;18.97;7.00;;;15.10;99.90;;;;;;4420649;32;20170;-62
2021/08/10 02:22:12;;;;;;;10.67;7.63;;;15.10;99.90;;;;;;4420009;32;20570;-62
2021/08/10 02:24:47;;;;;;;9.07;6.87;;;15.10;99.90;;;;;;4420569;32;20479;-63
2021/08/10 02:27:20;;;;;;;12.07;7.13;;;15.10;99.90;;;;;;4420188;32;20209;-62
2021/08/10 02:29:50;;;;;;;8.00;6.43;;;15.10;99.90;;;;;;4419758;32;20193;-64
2021/08/10 02:32:21;;;;;;;11.80;7.27;;;15.20;99.90;;;;;;4421061;32;20166;-62
2021/08/10 02:34:49;;;;;;;8.17;6.60;;;15.10;99.90;;;;;;4421611;32;20140;-62
2021/08/10 02:37:17;;;;;;;10.03;7.27;;;15.10;99.90;;;;;;4427327;32;20241;-62
2021/08/10 02:39:47;;;;;;;10.40;7.83;;;15.10;99.90;;;;;;4423204;32;20192;-62
2021/08/10 02:42:17;;;;;;;8.90;7.00;;;15.10;99.90;;;;;;4424451;32;20623;-61
2021/08/10 02:44:46;;;;;;;12.53;7.83;;;15.00;99.90;;;;;;4426310;32;20160;-63
2021/08/10 02:47:13;;;;;;;11.23;6.97;;;15.10;99.90;;;;;;4429197;32;20139;-62
2021/08/10 02:49:42;;;;;;;10.40;7.27;;;15.00;99.90;;;;;;4422530;32;20201;-62
2021/08/10 02:52:09;;;;;;;15.20;8.03;;;15.00;99.90;;;;;;4423912;32;20157;-61
2021/08/10 02:54:37;;;;;;;13.10;7.10;;;15.00;99.90;;;;;;4431097;32;20615;-62
2021/08/10 02:57:10;;;;;;;11.60;7.57;;;15.00;99.90;;;;;;4438347;32;20162;-62
2021/08/10 02:59:43;;;;;;;12.60;6.90;;;14.90;99.90;;;;;;4439529;32;20206;-62
2021/08/10 03:02:14;;;;;;;11.67;7.40;;;14.90;99.90;;;;;;4438870;32;20471;-61
2021/08/10 03:04:47;;;;;;;13.77;7.77;;;14.90;99.90;;;;;;4438715;32;20159;-63
2021/08/10 03:07:15;;;;;;;10.70;6.67;;;14.90;99.90;;;;;;4437712;32;20143;-61
2021/08/10 03:09:42;;;;;;;9.83;6.90;;;14.90;99.90;;;;;;4439345;32;20211;-62
2021/08/10 03:12:13;;;;;;;15.93;7.27;;;14.80;99.90;;;;;;4437671;32;20198;-63
2021/08/10 03:14:40;;;;;;;9.87;7.37;;;14.70;99.90;;;;;;4437650;32;20187;-62
2021/08/10 03:17:08;;;;;;;13.70;6.83;;;14.70;99.90;;;;;;4438728;32;20182;-61
2021/08/10 03:19:39;;;;;;;12.13;6.93;;;14.70;99.90;;;;;;4438928;32;20155;-63
2021/08/10 03:22:08;;;;;;;10.03;6.67;;;14.70;99.90;;;;;;4437516;32;20183;-63
2021/08/10 03:24:36;;;;;;;11.60;6.77;;;14.70;99.90;;;;;;4437194;32;20162;-62
2021/08/10 03:27:05;;;;;;;13.37;6.23;;;14.80;99.90;;;;;;4385141;32;1703676;-64
2021/08/10 03:29:35;;;;;;;11.30;6.60;;;14.80;99.90;;;;;;4436855;32;20249;-64
2021/08/10 03:32:02;;;;;;;15.57;7.03;;;14.80;99.90;;;;;;4439095;32;20196;-62
2021/08/10 03:34:31;;;;;;;13.63;6.27;;;14.70;99.90;;;;;;4437761;32;20135;-62
2021/08/10 03:36:59;;;;;;;13.40;6.57;;;14.80;99.90;;;;;;4439155;32;20600;-64
2021/08/10 03:39:26;;;;;;;12.60;7.30;;;14.70;99.90;;;;;;4437179;32;20158;-63
2021/08/10 03:41:53;;;;;;;11.23;6.90;;;14.70;99.90;;;;;;4437032;32;20211;-63
2021/08/10 03:44:21;;;;;;;12.63;7.30;;;14.70;99.90;;;;;;4437208;32;20471;-62
2021/08/10 03:46:51;;;;;;;16.47;6.67;;;14.70;99.90;;;;;;4438907;32;20157;-62
2021/08/10 03:49:22;;;;;;;7.70;6.27;;;14.70;99.90;;;;;;4437158;32;20139;-63
2021/08/10 03:51:49;;;;;;;11.80;6.07;;;14.70;99.90;;;;;;4437147;32;20147;-62
2021/08/10 03:54:17;;;;;;;13.00;6.10;;;14.70;99.90;;;;;;4437083;32;20182;-63
2021/08/10 03:56:49;;;;;;;12.33;7.40;;;14.80;99.90;;;;;;4437310;32;20146;-63
2021/08/10 03:59:18;;;;;;;10.03;6.27;;;14.80;99.90;;;;;;4437048;32;20139;-62
2021/08/10 04:01:48;;;;;;;13.90;6.37;;;14.80;99.90;;;;;;4435162;32;20155;-63
2021/08/10 04:04:16;;;;;;;12.50;6.40;;;14.80;99.90;;;;;;4421542;32;20143;-62
2021/08/10 04:06:44;;;;;;;10.43;6.50;;;14.70;99.90;;;;;;4421523;32;20139;-63
2021/08/10 04:09:12;;;;;;;17.00;7.67;;;14.70;99.90;;;;;;4421301;32;20170;-63
2021/08/10 04:11:40;;;;;;;11.37;6.97;;;14.70;99.90;;;;;;4422898;32;20501;-62
2021/08/10 04:14:08;;;;;;;12.00;7.50;;;14.70;99.90;;;;;;4422516;32;20208;-63
2021/08/10 04:16:43;;;;;;;11.10;6.50;;;14.70;99.90;;;;;;4421669;32;20143;-62
2021/08/10 04:19:10;;;;;;;11.20;7.53;;;14.70;99.90;;;;;;4421250;32;20135;-64
2021/08/10 04:21:38;;;;;;;12.13;7.60;;;14.80;99.90;;;;;;4421243;32;20567;-63
2021/08/10 04:24:06;;;;;;;11.40;7.40;;;14.80;99.90;;;;;;4421101;32;20147;-62
2021/08/10 04:26:33;;;;;;;10.83;7.33;;;14.70;99.90;;;;;;4422144;32;20139;-64
2021/08/10 04:29:00;;;;;;;12.90;7.43;;;14.70;99.90;;;;;;4421143;32;20178;-63
2021/08/10 04:31:27;;;;;;;15.93;8.50;;;14.60;99.90;;;;;;4421135;32;20177;-64
2021/08/10 04:33:54;;;;;;;16.10;8.10;;;14.60;99.90;;;;;;4421756;32;20170;-63
2021/08/10 04:36:22;;;;;;;13.87;8.27;;;14.50;99.90;;;;;;4421155;32;20177;-61
2021/08/10 04:38:50;;;;;;;10.90;7.53;;;14.50;99.90;;;;;;4421029;32;20162;-62
2021/08/10 04:41:17;;;;;;;13.17;7.57;;;14.50;99.90;;;;;;4421059;32;20619;-62
2021/08/10 04:43:44;;;;;;;11.63;7.70;;;14.60;99.90;;;;;;4422725;32;20173;-62
2021/08/10 04:46:11;;;;;;;12.43;7.90;;;14.50;99.90;;;;;;4421672;32;20143;-64
2021/08/10 04:48:38;;;;;;;18.00;8.73;;;14.60;99.90;;;;;;4421113;32;20190;-63
2021/08/10 04:51:04;;;;;;;11.13;7.27;;;14.50;99.90;;;;;;4421826;32;20158;-63
2021/08/10 04:53:31;;;;;;;12.30;7.60;;;14.60;99.90;;;;;;4420797;32;20476;-63
2021/08/10 04:55:59;;;;;;;15.23;8.10;;;14.50;99.90;;;;;;4421444;32;20587;-61
2021/08/10 04:58:26;;;;;;;13.33;7.70;;;14.60;99.90;;;;;;4421520;32;20155;-64
2021/08/10 05:00:53;;;;;;;14.20;7.93;;;14.60;99.90;;;;;;4421073;32;20258;-62
2021/08/10 05:03:20;;;;;;;16.90;8.20;;;14.60;99.90;;;;;;4420641;32;20162;-64
2021/08/10 05:05:48;;;;;;;13.17;8.17;;;14.70;99.90;;;;;;4422112;32;20162;-63
2021/08/10 05:08:15;;;;;;;9.00;7.00;;;14.70;99.90;;;;;;4420803;32;20190;-62
2021/08/10 05:10:42;;;;;;;11.20;7.13;;;14.80;99.90;;;;;;4422234;32;20139;-60
2021/08/10 05:13:10;;;;;;;11.53;6.70;;;15.00;99.90;;;;;;4420872;32;20167;-62
2021/08/10 05:15:37;;;;;;;10.77;6.77;;;15.50;99.90;;;;;;4414417;32;20295;-62
2021/08/10 05:18:07;;;;;;;8.30;5.70;;;16.50;99.90;;;;;;4412800;32;20219;-62
2021/08/10 05:20:34;;;;;;;9.93;5.43;;;18.20;99.90;;;;;;4415588;32;20835;-61
2021/08/10 05:23:01;;;;;;;8.27;4.37;;;18.70;99.90;;;;;;4422263;32;20144;-61
2021/08/10 05:25:28;;;;;;;7.87;4.63;;;18.70;99.90;;;;;;4414581;32;21495;-61
2021/08/10 05:27:55;;;;;;;9.87;5.63;;;18.30;99.90;;;;;;4417688;32;20181;-61
2021/08/10 05:30:24;;;;;;;8.67;5.17;;;17.80;99.90;;;;;;4422244;32;20143;-61
2021/08/10 05:32:51;;;;;;;8.40;4.83;;;17.40;99.90;;;;;;4426405;32;20233;-61
2021/08/10 05:35:21;;;;;;;9.40;4.87;;;17.20;99.90;;;;;;4435891;32;20153;-62
2021/08/10 05:37:47;;;;;;;12.43;5.67;;;17.10;99.90;;;;;;4436050;32;20158;-62
2021/08/10 05:40:14;;;;;;;9.53;5.73;;;16.80;99.90;;;;;;4435761;32;20143;-61
2021/08/10 05:42:41;;;;;;;10.63;5.87;;;16.60;99.90;;;;;;4436971;32;20165;-61
2021/08/10 05:45:09;;;;;;;9.17;5.73;;;16.40;99.90;;;;;;4435579;32;20192;-61
2021/08/10 05:47:37;;;;;;;9.17;6.27;;;16.40;99.90;;;;;;4435645;32;20139;-61
2021/08/10 05:50:04;;;;;;;10.43;6.30;;;16.20;99.90;;;;;;4437295;32;20157;-62
2021/08/10 05:52:31;;;;;;;13.60;6.30;;;16.20;99.90;;;;;;4436350;32;20158;-61
2021/08/10 05:54:58;;;;;;;13.87;6.87;;;16.20;99.90;;;;;;4435819;32;20197;-61
2021/08/10 05:57:25;;;;;;;11.77;6.50;;;16.10;99.90;;;;;;4435680;32;20187;-61
2021/08/10 05:59:52;;;;;;;14.50;7.33;;;16.10;99.90;;;;;;4436352;32;20249;-62
2021/08/10 06:02:19;;;;;;;13.20;6.57;;;16.10;99.90;;;;;;4437379;32;20166;-62
2021/08/10 06:04:47;;;;;;;10.17;6.43;;;16.20;99.90;;;;;;4436860;32;20139;-62
2021/08/10 06:07:14;;;;;;;7.23;5.40;;;16.10;99.90;;;;;;4435855;32;20161;-62
2021/08/10 06:09:43;;;;;;;10.90;6.73;;;16.20;99.90;;;;;;4436141;32;20162;-61
2021/08/10 06:12:10;;;;;;;12.40;6.67;;;16.20;99.90;;;;;;4435475;32;20174;-62
2021/08/10 06:14:37;;;;;;;13.13;6.23;;;16.40;99.90;;;;;;4438374;32;20134;-61
2021/08/10 06:17:04;;;;;;;9.73;6.27;;;16.60;99.90;;;;;;4439477;32;20139;-61
2021/08/10 06:19:31;;;;;;;9.60;6.23;;;17.00;99.90;;;;;;4440148;32;20139;-61
2021/08/10 06:21:59;;;;;;;15.10;6.03;;;17.30;99.90;;;;;;4438485;32;20143;-61
2021/08/10 06:24:27;;;;;;;11.37;6.17;;;17.60;99.90;;;;;;4438629;32;20222;-61
2021/08/10 06:26:54;;;;;;;12.03;6.30;;;17.50;99.90;;;;;;4438053;32;20134;-61
2021/08/10 06:29:21;;;;;;;16.07;7.47;;;17.40;99.90;;;;;;4437526;32;20190;-61
2021/08/10 06:31:48;;;;;;;9.13;7.13;;;17.20;99.90;;;;;;4439833;32;20555;-61
2021/08/10 06:34:15;;;;;;;10.50;6.13;;;17.00;99.90;;;;;;4438095;32;20161;-61
2021/08/10 06:36:43;;;;;;;12.07;6.17;;;17.20;99.90;;;;;;4438270;32;20137;-62
2021/08/10 06:39:12;;;;;;;15.90;6.20;;;17.30;99.90;;;;;;4438384;32;20425;-62
2021/08/10 06:41:39;;;;;;;12.47;7.00;;;17.50;99.90;;;;;;4438013;32;20163;-62
2021/08/10 06:44:06;;;;;;;9.30;6.77;;;17.90;99.90;;;;;;4437838;32;20164;-62
2021/08/10 06:46:33;;;;;;;9.67;5.63;;;17.90;99.90;;;;;;4438475;32;20144;-62
2021/08/10 06:49:00;;;;;;;10.87;6.70;;;18.00;99.90;;;;;;4437948;32;20197;-62
2021/08/10 06:51:27;;;;;;;11.47;6.87;;;18.00;99.90;;;;;;4437851;32;20141;-62
2021/08/10 06:53:54;;;;;;;16.77;6.23;;;17.90;99.90;;;;;;4437420;32;20158;-62
2021/08/10 06:56:22;;;;;;;13.73;6.43;;;18.00;99.90;;;;;;4437640;32;20158;-62
2021/08/10 06:58:49;;;;;;;9.00;5.70;;;18.20;99.90;;;;;;4438147;32;20209;-62
2021/08/10 07:01:16;;;;;;;9.07;5.97;;;18.70;99.90;;;;;;4437526;32;20140;-62
2021/08/10 07:03:43;;;;;;;10.97;6.50;;;18.80;99.90;;;;;;4438184;32;20581;-62
2021/08/10 07:06:11;;;;;;;13.07;7.43;;;18.90;99.90;;;;;;4438159;32;20253;-62
2021/08/10 07:08:37;;;;;;;13.73;7.80;;;18.70;99.90;;;;;;4437626;32;20230;-62
2021/08/10 07:11:04;;;;;;;10.67;7.07;;;18.60;99.90;;;;;;4437762;32;20184;-62
2021/08/10 07:13:33;;;;;;;14.77;7.43;;;18.60;99.90;;;;;;4437604;32;20139;-62
2021/08/10 07:15:59;;;;;;;12.77;8.00;;;18.50;99.90;;;;;;4437572;32;20185;-62
2021/08/10 07:18:26;;;;;;;14.03;7.43;;;18.40;99.90;;;;;;4437540;32;20199;-62
2021/08/10 07:20:54;;;;;;;17.77;8.40;;;18.50;99.90;;;;;;4438285;32;20151;-62
2021/08/10 07:23:21;;;;;;;18.77;7.77;;;18.40;99.90;;;;;;4437246;32;20158;-61
2021/08/10 07:25:49;;;;;;;15.17;7.57;;;18.50;99.90;;;;;;4437419;32;20162;-61
2021/08/10 07:28:16;;;;;;;11.07;6.07;;;18.70;99.90;;;;;;4437326;32;20571;-61
2021/08/10 07:30:44;;;;;;;10.97;6.03;;;19.00;99.90;;;;;;4437212;32;20136;-61
2021/08/10 07:33:11;;;;;;;11.40;7.27;;;19.60;99.90;;;;;;4437107;32;20154;-61
2021/08/10 07:35:38;;;;;;;13.17;5.87;;;20.20;99.90;;;;;;4437860;32;20143;-62
2021/08/10 07:38:05;;;;;;;11.50;5.63;;;20.50;99.90;;;;;;4437097;32;20309;-62
2021/08/10 07:40:32;;;;;;;14.23;6.10;;;20.80;99.90;;;;;;4437701;32;20135;-62
2021/08/10 07:42:59;;;;;;;12.17;6.00;;;21.20;99.90;;;;;;4437388;32;20139;-62
2021/08/10 07:45:26;;;;;;;9.97;5.10;;;22.20;99.90;;;;;;4438163;32;20143;-62
2021/08/10 07:47:55;;;;;;;10.70;5.50;;;22.00;99.90;;;;;;4436967;32;20140;-62
2021/08/10 07:50:22;;;;;;;12.87;5.23;;;21.60;99.90;;;;;;4437011;32;20136;-61
2021/08/10 07:52:49;;;;;;;10.00;5.10;;;21.10;99.90;;;;;;4437292;32;20225;-61
2021/08/10 07:55:16;;;;;;;11.77;4.93;;;21.70;99.90;;;;;;4437064;32;20161;-62
2021/08/10 07:57:43;;;;;;;8.67;3.80;;;23.60;99.90;;;;;;4437013;32;20143;-63
2021/08/10 08:00:12;;;;;;;12.27;4.47;;;25.10;99.90;;;;;;4437407;32;20213;-63
2021/08/10 08:02:38;;;;;;;7.67;4.23;;;28.50;97.40;;;;;;4436913;32;20166;-63
2021/08/10 08:05:08;;;;;;;7.72;3.60;;;28.80;96.10;;;;;;4436877;32;20140;-63
2021/08/10 08:07:34;;;;;;;9.18;3.97;;;29.80;93.10;;;;;;4436985;32;20219;-63
2021/08/10 08:10:01;;;;;;;11.25;4.12;;;30.90;92.10;;;;;;4436462;32;20226;-63
2021/08/10 08:12:28;;;;;;;7.28;3.47;;;32.40;85.20;;;;;;4436642;32;20138;-62
2021/08/10 08:14:55;;;;;;;9.55;4.05;;;31.10;84.20;;;;;;4436688;32;20155;-62
2021/08/10 08:17:22;;;;;;;6.15;3.92;;;29.30;87.40;;;;;;4437072;32;20139;-62
2021/08/10 08:19:49;;;;;;;8.85;3.95;;;27.80;91.00;;;;;;4436747;32;20166;-62
2021/08/10 08:22:20;;;;;;;5.47;3.50;;;28.30;90.80;;;;;;4437353;32;20563;-62
2021/08/10 08:24:47;;;;;;;8.88;4.12;;;26.90;92.60;;;;;;4437198;32;20513;-62
2021/08/10 08:27:13;;;;;;;6.07;3.83;;;26.00;94.50;;;;;;4437700;32;20589;-62
2021/08/10 08:29:40;;;;;;;8.45;3.97;;;25.20;96.30;;;;;;4436435;32;20179;-62
2021/08/10 08:32:08;;;;;;;8.50;3.70;;;26.80;95.60;;;;;;4438200;32;20547;-62
2021/08/10 08:34:36;;;;;;;7.45;3.67;;;27.70;94.00;;;;;;4436316;32;20143;-62
2021/08/10 08:37:04;;;;;;;9.55;3.85;;;29.80;90.20;;;;;;4432110;32;20158;-62
2021/08/10 08:39:38;;;;;;;6.22;2.87;;;28.50;91.00;;;;;;4420737;32;20189;-62
2021/08/10 08:42:05;;;;;;;8.05;3.60;;;26.70;92.90;;;;;;4410280;32;20243;-62
2021/08/10 08:44:35;;;;;;;5.80;3.10;;;26.40;94.00;;;;;;4415845;32;20234;-61
2021/08/10 08:47:16;;;;;;;6.83;3.10;;;25.50;94.90;;;;;;4421889;32;20157;-63
2021/08/10 08:49:43;;;;;;;5.47;2.92;;;24.30;96.80;;;;;;4418580;32;20219;-64
2021/08/10 08:52:20;;;;;;;7.00;3.50;;;23.40;99.30;;;;;;4418592;32;20593;-65
2021/08/10 08:54:49;;;;;;;5.67;3.00;;;22.70;99.90;;;;;;4416799;32;20225;-61
2021/08/10 08:57:27;;;;;;;6.65;2.78;;;24.70;99.90;;;;;;4421770;32;20202;-62
2021/08/10 08:59:55;;;;;;;4.78;2.40;;;27.20;95.60;;;;;;4428152;32;20511;-65
2021/08/10 09:02:22;;;;;;;8.30;3.10;;;26.20;95.70;;;;;;4437950;32;20135;-64
2021/08/10 09:04:49;;;;;;;9.20;3.40;;;26.50;96.20;;;;;;4437284;32;20551;-62
2021/08/10 09:07:16;;;;;;;7.07;2.70;;;26.40;95.30;;;;;;4436516;32;20185;-63
2021/08/10 09:09:45;;;;;;;5.37;2.50;;;25.60;95.90;;;;;;4436352;32;20140;-62
2021/08/10 09:12:15;;;;;;;8.53;3.20;;;26.00;96.40;;;;;;4436215;32;20135;-64
2021/08/10 09:14:47;;;;;;;8.80;3.23;;;25.70;95.30;;;;;;4436203;32;20151;-63
2021/08/10 09:17:15;;;;;;;4.63;2.70;;;24.70;96.90;;;;;;4436083;32;20158;-63
2021/08/10 09:19:46;;;;;;;5.97;2.70;;;23.70;98.80;;;;;;4436151;32;20167;-63
2021/08/10 09:22:22;;;;;;;4.57;2.27;;;22.70;99.90;;;;;;4436123;32;20143;-63
2021/08/10 09:24:53;;;;;;;5.00;2.60;;;22.00;99.90;;;;;;4436591;32;20139;-64
2021/08/10 09:27:30;;;;;;;5.87;2.70;;;21.70;99.90;;;;;;4436127;32;20167;-63
2021/08/10 09:29:59;;;;;;;4.60;2.60;;;21.50;99.90;;;;;;4435787;32;20579;-64
2021/08/10 09:32:26;;;;;;;4.23;2.70;;;21.40;99.90;;;;;;4435978;32;20197;-63
2021/08/10 09:35:11;;;;;;;5.50;2.80;;;21.20;99.90;;;;;;4436030;32;20180;-64
2021/08/10 09:37:38;;;;;;;4.87;2.73;;;20.90;99.90;;;;;;4436171;32;20143;-61
2021/08/10 09:40:28;;;;;;;5.97;3.07;;;20.70;99.90;;;;;;4435935;32;20169;-63
2021/08/10 09:43:21;;;;;;;6.37;3.20;;;20.60;99.90;;;;;;4437594;32;20149;-62
2021/08/10 09:45:49;;;;;;;4.43;2.63;;;20.40;99.90;;;;;;4435869;32;20170;-64
2021/08/10 09:48:17;;;;;;;5.23;3.33;;;20.10;99.90;;;;;;4438959;32;20139;-63
2021/08/10 09:50:45;;;;;;;3.47;2.23;;;20.10;99.90;;;;;;4438951;32;20167;-62
2021/08/10 09:53:16;;;;;;;3.80;2.73;;;20.30;99.90;;;;;;4439492;32;20562;-62
2021/08/10 09:55:53;;;;;;;3.27;2.47;;;20.40;99.90;;;;;;4440547;32;20184;-64
2021/08/10 09:58:23;;;;;;;5.17;2.40;;;21.10;99.90;;;;;;4438785;32;20226;-64
2021/08/10 10:00:51;;;;;;;2.90;2.50;;;21.40;99.90;;;;;;4438642;32;20135;-61
2021/08/10 10:03:19;;;;;;;4.60;2.77;;;21.30;99.90;;;;;;4440051;32;20222;-64
2021/08/10 10:05:47;;;;;;;4.50;2.87;;;20.90;99.90;;;;;;4439849;32;20143;-64
2021/08/10 10:08:15;;;;;;;6.50;3.23;;;20.30;99.90;;;;;;4438668;32;20135;-61
2021/08/10 10:10:42;;;;;;;4.50;3.67;;;19.50;99.90;;;;;;4440244;32;20179;-62
2021/08/10 10:13:12;;;;;;;7.43;4.17;;;19.10;99.90;;;;;;4438603;32;20585;-61
2021/08/10 10:15:41;;;;;;;8.27;4.10;;;18.90;99.90;;;;;;4439043;32;20631;-60
2021/08/10 10:18:11;;;;;;;5.57;3.80;;;19.30;99.90;;;;;;4439263;32;20173;-62
2021/08/10 10:20:41;;;;;;;5.17;4.03;;;19.80;99.90;;;;;;4438486;32;20139;-61
2021/08/10 10:23:10;;;;;;;7.17;3.67;;;20.20;99.90;;;;;;4438777;32;20155;-62
2021/08/10 10:25:37;;;;;;;5.80;3.73;;;20.40;99.90;;;;;;4438383;32;20162;-61
2021/08/10 10:28:04;;;;;;;5.43;3.90;;;20.20;99.90;;;;;;4438089;32;20159;-62
2021/08/10 10:30:31;;;;;;;7.07;4.97;;;20.40;99.90;;;;;;4439512;32;20375;-63
2021/08/10 10:33:00;;;;;;;8.60;3.93;;;21.00;99.90;;;;;;4438656;32;20169;-65
2021/08/10 10:35:26;;;;;;;6.53;3.60;;;21.70;99.90;;;;;;4440093;32;20165;-64
2021/08/10 10:37:54;;;;;;;5.90;3.80;;;22.60;99.90;;;;;;4438127;32;20436;-64
2021/08/10 10:40:22;;;;;;;7.40;3.70;;;22.80;99.90;;;;;;4438424;32;20148;-61
2021/08/10 10:42:55;;;;;;;7.97;4.13;;;22.70;99.90;;;;;;4439224;32;20170;-61
2021/08/10 10:45:33;;;;;;;5.93;3.80;;;22.70;99.90;;;;;;4438256;32;20175;-62
2021/08/10 10:48:01;;;;;;;6.20;3.63;;;22.90;99.90;;;;;;4438418;32;20585;-64
2021/08/10 10:50:28;;;;;;;7.80;3.70;;;23.40;99.90;;;;;;4438622;32;20155;-62
2021/08/10 10:53:08;;;;;;;7.97;4.00;;;24.00;99.90;;;;;;4438751;32;20173;-62
2021/08/10 10:55:37;;;;;;;7.00;3.27;;;24.00;99.90;;;;;;4437985;32;20154;-62
2021/08/10 10:58:31;;;;;;;7.80;3.62;;;24.20;99.90;;;;;;4437626;32;20173;-62
2021/08/10 11:01:21;;;;;;;7.80;3.80;;;24.10;99.70;;;;;;4437986;32;20143;-62
2021/08/10 11:04:13;;;;;;;6.13;3.77;;;23.80;99.90;;;;;;4375040;32;20152;-62
2021/08/10 11:06:46;;;;;;;7.47;3.77;;;23.60;99.90;;;;;;4330913;33;20280;-64
2021/08/10 11:09:59;;;;;;;6.73;3.73;;;23.60;99.90;;;;;;4330578;33;20153;-63
2021/08/10 11:12:47;;;;;;;5.97;3.37;;;23.50;99.90;;;;;;4330687;33;20195;-65
2021/08/10 11:15:16;;;;;;;8.37;3.37;;;23.70;99.90;;;;;;4330483;33;20153;-64
2021/08/10 11:18:22;;;;;;;6.27;3.30;;;23.90;99.90;;;;;;4330798;33;20184;-65
2021/08/10 11:20:52;;;;;;;6.37;3.50;;;23.90;99.30;;;;;;4330450;33;20182;-64
2021/08/10 11:23:36;;;;;;;7.10;3.70;;;23.90;99.50;;;;;;4330485;33;20164;-62
2021/08/10 11:28:33;;;;;;;7.50;3.70;;;23.10;99.90;;;;;;4398826;32;20210;-62
2021/08/10 11:31:01;;;;;;;11.63;4.10;;;23.00;99.90;;;;;;4407037;32;20154;-63
2021/08/10 11:33:40;;;;;;;6.73;3.03;;;23.30;99.90;;;;;;4407698;32;20498;-63
2021/08/10 11:36:24;;;;;;;6.90;3.83;;;23.40;99.90;;;;;;4407113;32;20159;-62
2021/08/10 11:39:10;;;;;;;14.23;3.43;;;23.60;99.90;;;;;;4407073;32;20132;-62
2021/08/10 11:41:39;;;;;;;7.55;3.62;;;23.70;99.30;;;;;;4406681;32;20140;-62
2021/08/10 11:44:17;;;;;;;5.70;3.60;;;23.90;99.30;;;;;;4408094;32;20178;-63
2021/08/10 11:46:44;;;;;;;8.00;3.67;;;23.90;98.20;;;;;;4407033;32;20143;-64
2021/08/10 11:49:19;;;;;;;8.53;4.10;;;23.70;98.90;;;;;;4406947;32;20196;-65
2021/08/10 11:51:48;;;;;;;5.73;3.10;;;23.60;99.70;;;;;;4406826;32;20143;-63
2021/08/10 11:54:17;;;;;;;9.70;4.47;;;23.20;99.30;;;;;;4402605;32;20608;-63
2021/08/10 11:56:45;;;;;;;5.47;3.13;;;22.90;99.90;;;;;;4392185;32;20544;-65
2021/08/10 11:59:16;;;;;;;6.90;3.80;;;22.60;99.90;;;;;;4391365;32;20179;-63
2021/08/10 12:01:43;;;;;;;6.40;3.50;;;22.30;99.90;;;;;;4391510;32;20198;-65
2021/08/10 12:04:14;;;;;;;5.30;3.47;;;22.00;99.90;;;;;;4392128;32;20140;-63
2021/08/10 12:06:42;;;;;;;4.53;3.30;;;21.80;99.90;;;;;;4391339;32;20155;-63
2021/08/10 12:09:11;;;;;;;9.37;3.67;;;21.70;99.90;;;;;;4391209;32;20486;-65
2021/08/10 12:11:38;;;;;;;8.13;4.10;;;21.40;99.90;;;;;;4391176;32;20159;-63
2021/08/10 12:14:12;;;;;;;6.57;4.00;;;21.50;99.90;;;;;;4391051;32;20603;-65
2021/08/10 12:16:39;;;;;;;8.53;4.57;;;22.00;99.90;;;;;;4391349;32;20175;-64
2021/08/10 12:19:06;;;;;;;9.43;4.17;;;22.40;99.90;;;;;;4391579;32;20163;-63
2021/08/10 12:21:43;;;;;;;8.60;4.00;;;22.50;99.90;;;;;;4385908;32;20220;-63
2021/08/10 12:24:26;;;;;;;8.47;3.87;;;22.60;99.90;;;;;;4391210;32;20159;-65
2021/08/10 12:26:53;;;;;;;10.30;4.30;;;22.60;99.90;;;;;;4390965;32;20156;-63
2021/08/10 12:29:22;;;;;;;7.40;4.37;;;22.60;99.90;;;;;;4391063;32;20140;-64
2021/08/10 12:31:49;;;;;;;5.93;4.17;;;22.90;99.90;;;;;;4392077;32;20477;-63
2021/08/10 12:34:16;;;;;;;6.67;4.03;;;23.00;99.90;;;;;;4390979;32;20144;-62
2021/08/10 12:36:52;;;;;;;8.43;3.97;;;22.90;99.90;;;;;;4391658;32;20175;-63
2021/08/10 12:39:22;;;;;;;9.00;3.97;;;22.60;99.90;;;;;;4390774;32;20156;-64
2021/08/10 12:41:49;;;;;;;6.87;3.92;;;22.40;99.90;;;;;;4390984;32;20132;-64
2021/08/10 12:44:16;;;;;;;7.47;3.90;;;22.30;99.90;;;;;;4390869;32;20203;-63
2021/08/10 12:46:44;;;;;;;7.50;4.00;;;22.50;99.90;;;;;;4390537;32;20144;-64
2021/08/10 12:49:15;;;;;;;7.03;4.03;;;22.70;99.90;;;;;;4391258;32;20140;-65
2021/08/10 12:51:53;;;;;;;9.00;4.27;;;22.60;99.90;;;;;;4391277;32;20251;-64
2021/08/10 12:54:22;;;;;;;9.43;3.87;;;22.30;99.90;;;;;;4390667;32;20148;-64
2021/08/10 12:56:50;;;;;;;7.53;3.83;;;22.50;99.90;;;;;;4390583;32;20426;-63